sensor_id;sensor_type;location;lat;lon;timestamp;pressure;altitude;pressure_sealevel;temperature;humidity
55456;BME280;63021;52.836;6.376;2023-09-07T00:01:07;102147.78;;;19.53;nan
55456;BME280;63021;52.836;6.376;2023-09-07T00:03:36;102147.28;;;19.49;nan
55456;BME280;63021;52.836;6.376;2023-09-07T00:06:06;102162.19;;;19.45;nan
55456;BME280;63021;52.836;6.376;2023-09-07T00:08:31;102145.63;;;19.40;nan
55456;BME280;63021;52.836;6.376;2023-09-07T00:11:08;102142.44;;;19.36;nan
55456;BME280;63021;52.836;6.376;2023-09-07T00:13:34;102142.78;;;19.33;nan
55456;BME280;63021;52.836;6.376;2023-09-07T00:16:00;102135.88;;;19.31;nan
55456;BME280;63021;52.836;6.376;2023-09-07T00:18:28;102136.22;;;19.28;nan
55456;BME280;63021;52.836;6.376;2023-09-07T00:20:53;102134.72;;;19.25;nan
55456;BME280;63021;52.836;6.376;2023-09-07T00:23:19;102135.72;;;19.24;nan
55456;BME280;63021;52.836;6.376;2023-09-07T00:25:45;102139.59;;;19.21;nan
55456;BME280;63021;52.836;6.376;2023-09-07T00:28:10;102144.53;;;19.18;nan
55456;BME280;63021;52.836;6.376;2023-09-07T00:30:35;102141.31;;;19.14;nan
55456;BME280;63021;52.836;6.376;2023-09-07T00:33:01;102148.06;;;19.10;nan
55456;BME280;63021;52.836;6.376;2023-09-07T00:35:26;102143.84;;;19.08;nan
55456;BME280;63021;52.836;6.376;2023-09-07T00:37:51;102143.38;;;19.04;nan
55456;BME280;63021;52.836;6.376;2023-09-07T00:40:17;63605.13;;;-148.25;100.00
55456;BME280;63021;52.836;6.376;2023-09-07T00:42:42;102142.03;;;19.00;nan
55456;BME280;63021;52.836;6.376;2023-09-07T00:45:07;102136.09;;;18.96;nan
55456;BME280;63021;52.836;6.376;2023-09-07T00:47:34;102137.31;;;18.94;nan
55456;BME280;63021;52.836;6.376;2023-09-07T00:50:01;102129.41;;;18.92;nan
55456;BME280;63021;52.836;6.376;2023-09-07T00:52:26;102128.06;;;18.88;nan
55456;BME280;63021;52.836;6.376;2023-09-07T00:54:52;102126.50;;;18.85;nan
55456;BME280;63021;52.836;6.376;2023-09-07T00:57:17;102134.94;;;18.82;nan
55456;BME280;63021;52.836;6.376;2023-09-07T00:59:43;102128.00;;;18.80;nan
55456;BME280;63021;52.836;6.376;2023-09-07T01:02:08;102124.84;;;18.76;nan
55456;BME280;63021;52.836;6.376;2023-09-07T01:04:33;102126.19;;;18.72;nan
55456;BME280;63021;52.836;6.376;2023-09-07T01:07:13;102115.69;;;18.69;nan
55456;BME280;63021;52.836;6.376;2023-09-07T01:09:41;102111.69;;;18.65;nan
55456;BME280;63021;52.836;6.376;2023-09-07T01:12:07;102113.88;;;18.61;nan
55456;BME280;63021;52.836;6.376;2023-09-07T01:14:36;102115.22;;;18.57;nan
55456;BME280;63021;52.836;6.376;2023-09-07T01:17:01;102118.41;;;18.52;nan
55456;BME280;63021;52.836;6.376;2023-09-07T01:19:27;102117.06;;;18.48;nan
55456;BME280;63021;52.836;6.376;2023-09-07T01:21:52;102118.25;;;18.46;nan
55456;BME280;63021;52.836;6.376;2023-09-07T01:24:18;102115.88;;;18.43;nan
55456;BME280;63021;52.836;6.376;2023-09-07T01:26:44;102112.69;;;18.39;nan
55456;BME280;63021;52.836;6.376;2023-09-07T01:29:14;102107.66;;;18.36;nan
55456;BME280;63021;52.836;6.376;2023-09-07T01:31:41;102105.25;;;18.33;nan
55456;BME280;63021;52.836;6.376;2023-09-07T01:34:07;102108.13;;;18.31;nan
55456;BME280;63021;52.836;6.376;2023-09-07T01:36:33;102112.03;;;18.29;nan
55456;BME280;63021;52.836;6.376;2023-09-07T01:38:58;102114.72;;;18.29;nan
55456;BME280;63021;52.836;6.376;2023-09-07T01:41:24;102118.41;;;18.28;nan
55456;BME280;63021;52.836;6.376;2023-09-07T01:43:49;102124.13;;;18.25;nan
55456;BME280;63021;52.836;6.376;2023-09-07T01:46:15;102123.44;;;18.23;nan
55456;BME280;63021;52.836;6.376;2023-09-07T01:48:40;102117.41;;;18.21;nan
55456;BME280;63021;52.836;6.376;2023-09-07T01:51:07;102113.00;;;18.20;nan
55456;BME280;63021;52.836;6.376;2023-09-07T01:53:32;102113.00;;;18.20;nan
55456;BME280;63021;52.836;6.376;2023-09-07T01:55:57;102120.25;;;18.19;nan
55456;BME280;63021;52.836;6.376;2023-09-07T01:58:24;102103.91;;;18.21;nan
55456;BME280;63021;52.836;6.376;2023-09-07T02:00:49;102114.69;;;18.21;nan
55456;BME280;63021;52.836;6.376;2023-09-07T02:03:15;102106.63;;;18.21;nan
55456;BME280;63021;52.836;6.376;2023-09-07T02:05:40;102116.41;;;18.22;nan
55456;BME280;63021;52.836;6.376;2023-09-07T02:08:05;102118.06;;;18.23;nan
55456;BME280;63021;52.836;6.376;2023-09-07T02:10:31;102117.06;;;18.24;nan
55456;BME280;63021;52.836;6.376;2023-09-07T02:12:56;102114.19;;;18.25;nan
55456;BME280;63021;52.836;6.376;2023-09-07T02:15:23;102115.03;;;18.26;nan
55456;BME280;63021;52.836;6.376;2023-09-07T02:17:48;102123.97;;;18.26;nan
55456;BME280;63021;52.836;6.376;2023-09-07T02:20:13;102117.72;;;18.26;nan
55456;BME280;63021;52.836;6.376;2023-09-07T02:22:42;102113.19;;;18.26;nan
55456;BME280;63021;52.836;6.376;2023-09-07T02:25:07;102116.06;;;18.25;nan
55456;BME280;63021;52.836;6.376;2023-09-07T02:27:33;102119.75;;;18.24;nan
55456;BME280;63021;52.836;6.376;2023-09-07T02:29:58;102122.63;;;18.22;nan
55456;BME280;63021;52.836;6.376;2023-09-07T02:32:23;102118.22;;;18.21;nan
55456;BME280;63021;52.836;6.376;2023-09-07T02:34:49;102126.47;;;18.20;nan
55456;BME280;63021;52.836;6.376;2023-09-07T02:37:14;102138.25;;;18.18;nan
55456;BME280;63021;52.836;6.376;2023-09-07T02:39:41;102130.34;;;18.17;nan
55456;BME280;63021;52.836;6.376;2023-09-07T02:42:06;102122.59;;;18.14;nan
55456;BME280;63021;52.836;6.376;2023-09-07T02:44:31;102126.47;;;18.11;nan
55456;BME280;63021;52.836;6.376;2023-09-07T02:46:56;102118.72;;;18.08;nan
55456;BME280;63021;52.836;6.376;2023-09-07T02:49:22;102116.19;;;18.07;nan
55456;BME280;63021;52.836;6.376;2023-09-07T02:51:47;102120.91;;;18.05;nan
55456;BME280;63021;52.836;6.376;2023-09-07T02:54:12;102122.25;;;18.00;nan
55456;BME280;63021;52.836;6.376;2023-09-07T02:56:37;102117.19;;;17.97;nan
55456;BME280;63021;52.836;6.376;2023-09-07T02:59:03;102113.97;;;17.94;nan
55456;BME280;63021;52.836;6.376;2023-09-07T03:01:28;102114.28;;;17.91;nan
55456;BME280;63021;52.836;6.376;2023-09-07T03:03:53;102115.25;;;17.90;nan
55456;BME280;63021;52.836;6.376;2023-09-07T03:06:19;102123.69;;;17.87;nan
55456;BME280;63021;52.836;6.376;2023-09-07T03:08:45;102129.22;;;17.85;nan
55456;BME280;63021;52.836;6.376;2023-09-07T03:11:10;102118.78;;;17.82;nan
55456;BME280;63021;52.836;6.376;2023-09-07T03:13:36;102121.66;;;17.80;nan
55456;BME280;63021;52.836;6.376;2023-09-07T03:16:02;102118.25;;;17.78;nan
55456;BME280;63021;52.836;6.376;2023-09-07T03:18:28;102118.44;;;17.77;nan
55456;BME280;63021;52.836;6.376;2023-09-07T03:20:54;102113.19;;;17.75;nan
55456;BME280;63021;52.836;6.376;2023-09-07T03:23:19;102116.94;;;17.74;nan
55456;BME280;63021;52.836;6.376;2023-09-07T03:25:45;102117.94;;;17.73;nan
55456;BME280;63021;52.836;6.376;2023-09-07T03:28:10;102120.09;;;17.70;nan
55456;BME280;63021;52.836;6.376;2023-09-07T03:30:38;102106.94;;;17.66;nan
55456;BME280;63021;52.836;6.376;2023-09-07T03:33:03;102110.81;;;17.64;nan
55456;BME280;63021;52.836;6.376;2023-09-07T03:35:28;102105.75;;;17.61;nan
55456;BME280;63021;52.836;6.376;2023-09-07T03:37:54;102109.59;;;17.58;nan
55456;BME280;63021;52.836;6.376;2023-09-07T03:40:19;102107.06;;;17.57;nan
55456;BME280;63021;52.836;6.376;2023-09-07T03:42:45;102108.56;;;17.51;nan
55456;BME280;63021;52.836;6.376;2023-09-07T03:45:11;102110.09;;;17.54;nan
55456;BME280;63021;52.836;6.376;2023-09-07T03:47:36;102116.66;;;17.51;nan
55456;BME280;63021;52.836;6.376;2023-09-07T03:50:02;102113.44;;;17.47;nan
55456;BME280;63021;52.836;6.376;2023-09-07T03:52:28;102111.91;;;17.45;nan
55456;BME280;63021;52.836;6.376;2023-09-07T03:54:54;102107.69;;;17.42;nan
55456;BME280;63021;52.836;6.376;2023-09-07T03:57:20;102111.56;;;17.40;nan
55456;BME280;63021;52.836;6.376;2023-09-07T03:59:45;102112.72;;;17.37;nan
55456;BME280;63021;52.836;6.376;2023-09-07T04:02:11;102120.09;;;17.35;nan
55456;BME280;63021;52.836;6.376;2023-09-07T04:04:42;102113.22;;;17.33;nan
55456;BME280;63021;52.836;6.376;2023-09-07T04:07:07;102119.75;;;17.30;nan
55456;BME280;63021;52.836;6.376;2023-09-07T04:09:33;102124.44;;;17.28;nan
55456;BME280;63021;52.836;6.376;2023-09-07T04:11:58;102123.78;;;17.26;nan
55456;BME280;63021;52.836;6.376;2023-09-07T04:14:23;102119.38;;;17.25;nan
55456;BME280;63021;52.836;6.376;2023-09-07T04:16:48;102126.63;;;17.24;nan
55456;BME280;63021;52.836;6.376;2023-09-07T04:19:15;102124.94;;;17.23;nan
55456;BME280;63021;52.836;6.376;2023-09-07T04:21:40;102124.41;;;17.20;nan
55456;BME280;63021;52.836;6.376;2023-09-07T04:24:06;102128.09;;;17.19;nan
55456;BME280;63021;52.836;6.376;2023-09-07T04:26:32;102121.19;;;17.16;nan
55456;BME280;63021;52.836;6.376;2023-09-07T04:28:58;102112.59;;;17.12;nan
55456;BME280;63021;52.836;6.376;2023-09-07T04:31:23;102114.59;;;17.10;nan
55456;BME280;63021;52.836;6.376;2023-09-07T04:33:52;102120.31;;;17.07;nan
55456;BME280;63021;52.836;6.376;2023-09-07T04:36:20;102114.53;;;17.02;nan
55456;BME280;63021;52.836;6.376;2023-09-07T04:38:45;102114.84;;;16.99;nan
55456;BME280;63021;52.836;6.376;2023-09-07T04:41:11;102124.25;;;16.95;nan
55456;BME280;63021;52.836;6.376;2023-09-07T04:43:37;102121.03;;;16.91;nan
55456;BME280;63021;52.836;6.376;2023-09-07T04:46:05;102116.81;;;16.89;nan
55456;BME280;63021;52.836;6.376;2023-09-07T04:48:30;102121.50;;;16.87;nan
55456;BME280;63021;52.836;6.376;2023-09-07T04:51:02;102120.78;;;16.85;nan
55456;BME280;63021;52.836;6.376;2023-09-07T04:53:28;102120.94;;;16.83;nan
55456;BME280;63021;52.836;6.376;2023-09-07T04:55:54;102123.94;;;16.80;nan
55456;BME280;63021;52.836;6.376;2023-09-07T04:58:19;102127.78;;;16.77;nan
55456;BME280;63021;52.836;6.376;2023-09-07T05:00:44;102127.94;;;16.76;nan
55456;BME280;63021;52.836;6.376;2023-09-07T05:03:09;102143.41;;;16.74;nan
55456;BME280;63021;52.836;6.376;2023-09-07T05:05:35;102130.13;;;16.72;nan
55456;BME280;63021;52.836;6.376;2023-09-07T05:08:00;102130.41;;;16.69;nan
55456;BME280;63021;52.836;6.376;2023-09-07T05:10:26;102143.19;;;16.67;nan
55456;BME280;63021;52.836;6.376;2023-09-07T05:12:52;102137.13;;;16.65;nan
55456;BME280;63021;52.836;6.376;2023-09-07T05:15:17;102131.88;;;16.63;nan
55456;BME280;63021;52.836;6.376;2023-09-07T05:17:42;102127.84;;;16.59;nan
55456;BME280;63021;52.836;6.376;2023-09-07T05:20:08;102140.97;;;16.62;nan
55456;BME280;63021;52.836;6.376;2023-09-07T05:22:34;102137.56;;;16.60;nan
55456;BME280;63021;52.836;6.376;2023-09-07T05:25:02;102149.19;;;16.61;nan
55456;BME280;63021;52.836;6.376;2023-09-07T05:27:28;102138.59;;;16.59;nan
55456;BME280;63021;52.836;6.376;2023-09-07T05:29:53;102141.13;;;16.61;nan
55456;BME280;63021;52.836;6.376;2023-09-07T05:32:18;102151.88;;;16.61;nan
55456;BME280;63021;52.836;6.376;2023-09-07T05:34:44;102149.19;;;16.61;nan
55456;BME280;63021;52.836;6.376;2023-09-07T05:37:12;102152.72;;;16.61;nan
55456;BME280;63021;52.836;6.376;2023-09-07T05:39:37;102148.16;;;16.62;nan
55456;BME280;63021;52.836;6.376;2023-09-07T05:42:02;102139.94;;;16.63;nan
55456;BME280;63021;52.836;6.376;2023-09-07T05:44:27;102149.03;;;16.62;nan
55456;BME280;63021;52.836;6.376;2023-09-07T05:46:53;102148.88;;;16.64;nan
55456;BME280;63021;52.836;6.376;2023-09-07T05:49:19;102145.19;;;16.65;nan
55456;BME280;63021;52.836;6.376;2023-09-07T05:51:44;102147.56;;;16.68;nan
55456;BME280;63021;52.836;6.376;2023-09-07T05:54:09;102152.47;;;16.73;nan
55456;BME280;63021;52.836;6.376;2023-09-07T05:56:35;102150.28;;;16.76;nan
55456;BME280;63021;52.836;6.376;2023-09-07T05:59:00;102154.38;;;16.80;nan
55456;BME280;63021;52.836;6.376;2023-09-07T06:01:25;102151.22;;;16.85;nan
55456;BME280;63021;52.836;6.376;2023-09-07T06:03:51;102149.75;;;16.91;nan
55456;BME280;63021;52.836;6.376;2023-09-07T06:06:16;102155.38;;;16.97;nan
55456;BME280;63021;52.836;6.376;2023-09-07T06:08:41;102159.13;;;17.05;nan
55456;BME280;63021;52.836;6.376;2023-09-07T06:11:07;102156.31;;;17.14;nan
55456;BME280;63021;52.836;6.376;2023-09-07T06:13:32;102165.28;;;17.23;nan
55456;BME280;63021;52.836;6.376;2023-09-07T06:15:57;102161.66;;;17.33;nan
55456;BME280;63021;52.836;6.376;2023-09-07T06:18:25;102163.38;;;17.42;nan
55456;BME280;63021;52.836;6.376;2023-09-07T06:20:50;102164.09;;;17.52;nan
55456;BME280;63021;52.836;6.376;2023-09-07T06:23:16;102165.00;;;17.61;nan
55456;BME280;63021;52.836;6.376;2023-09-07T06:25:41;102175.47;;;17.72;nan
55456;BME280;63021;52.836;6.376;2023-09-07T06:28:06;102184.28;;;17.82;nan
55456;BME280;63021;52.836;6.376;2023-09-07T06:30:32;102172.56;;;17.92;nan
55456;BME280;63021;52.836;6.376;2023-09-07T06:32:57;102163.66;;;17.99;nan
55456;BME280;63021;52.836;6.376;2023-09-07T06:35:22;102176.81;;;18.11;nan
55456;BME280;63021;52.836;6.376;2023-09-07T06:37:48;102179.38;;;18.21;nan
55456;BME280;63021;52.836;6.376;2023-09-07T06:40:13;102176.53;;;18.30;nan
55456;BME280;63021;52.836;6.376;2023-09-07T06:42:40;102186.16;;;18.41;nan
55456;BME280;63021;52.836;6.376;2023-09-07T06:45:06;102180.63;;;18.51;nan
55456;BME280;63021;52.836;6.376;2023-09-07T06:47:32;102181.28;;;18.61;nan
55456;BME280;63021;52.836;6.376;2023-09-07T06:49:57;102181.13;;;18.71;nan
55456;BME280;63021;52.836;6.376;2023-09-07T06:52:23;102180.09;;;18.80;nan
55456;BME280;63021;52.836;6.376;2023-09-07T06:54:50;102179.13;;;18.90;nan
55456;BME280;63021;52.836;6.376;2023-09-07T06:57:16;102192.47;;;18.99;nan
55456;BME280;63021;52.836;6.376;2023-09-07T06:59:41;102185.84;;;19.10;nan
55456;BME280;63021;52.836;6.376;2023-09-07T07:02:06;102182.16;;;19.19;nan
55456;BME280;63021;52.836;6.376;2023-09-07T07:04:32;102183.81;;;19.29;nan
55456;BME280;63021;52.836;6.376;2023-09-07T07:06:57;102188.00;;;19.39;nan
55456;BME280;63021;52.836;6.376;2023-09-07T07:09:22;102188.81;;;19.48;nan
55456;BME280;63021;52.836;6.376;2023-09-07T07:11:48;102182.38;;;19.58;nan
55456;BME280;63021;52.836;6.376;2023-09-07T07:14:14;102189.28;;;19.68;nan
55456;BME280;63021;52.836;6.376;2023-09-07T07:16:39;102189.03;;;19.78;nan
55456;BME280;63021;52.836;6.376;2023-09-07T07:19:05;102180.94;;;19.86;nan
55456;BME280;63021;52.836;6.376;2023-09-07T07:21:30;102186.97;;;19.97;nan
55456;BME280;63021;52.836;6.376;2023-09-07T07:23:55;102192.16;;;20.06;nan
55456;BME280;63021;52.836;6.376;2023-09-07T07:26:21;102191.28;;;20.14;nan
55456;BME280;63021;52.836;6.376;2023-09-07T07:28:46;102189.38;;;20.23;nan
55456;BME280;63021;52.836;6.376;2023-09-07T07:31:11;102193.50;;;20.34;nan
55456;BME280;63021;52.836;6.376;2023-09-07T07:33:36;102188.06;;;20.42;nan
55456;BME280;63021;52.836;6.376;2023-09-07T07:36:05;102189.66;;;20.51;nan
55456;BME280;63021;52.836;6.376;2023-09-07T07:38:30;102185.22;;;20.58;nan
55456;BME280;63021;52.836;6.376;2023-09-07T07:40:55;102187.91;;;20.67;nan
55456;BME280;63021;52.836;6.376;2023-09-07T07:43:21;102188.50;;;20.77;nan
55456;BME280;63021;52.836;6.376;2023-09-07T07:45:47;102184.72;;;20.86;nan
55456;BME280;63021;52.836;6.376;2023-09-07T07:48:12;102185.47;;;20.95;nan
55456;BME280;63021;52.836;6.376;2023-09-07T07:50:40;102179.81;;;21.05;nan
55456;BME280;63021;52.836;6.376;2023-09-07T07:53:06;102177.84;;;21.14;nan
55456;BME280;63021;52.836;6.376;2023-09-07T07:55:38;102178.59;;;21.22;nan
55456;BME280;63021;52.836;6.376;2023-09-07T07:58:06;102182.25;;;21.29;nan
55456;BME280;63021;52.836;6.376;2023-09-07T08:00:35;102174.88;;;22.70;nan
55456;BME280;63021;52.836;6.376;2023-09-07T08:03:01;102172.28;;;21.45;nan
55456;BME280;63021;52.836;6.376;2023-09-07T08:05:34;102169.47;;;21.53;nan
55456;BME280;63021;52.836;6.376;2023-09-07T08:07:59;102181.06;;;21.62;nan
55456;BME280;63021;52.836;6.376;2023-09-07T08:10:24;102173.03;;;21.69;nan
55456;BME280;63021;52.836;6.376;2023-09-07T08:12:56;102170.41;;;21.75;nan
55456;BME280;63021;52.836;6.376;2023-09-07T08:15:21;102177.59;;;21.83;nan
55456;BME280;63021;52.836;6.376;2023-09-07T08:17:49;102167.66;;;21.90;nan
55456;BME280;63021;52.836;6.376;2023-09-07T08:20:15;102161.47;;;21.96;nan
55456;BME280;63021;52.836;6.376;2023-09-07T08:22:41;102166.97;;;22.03;nan
55456;BME280;63021;52.836;6.376;2023-09-07T08:25:09;102169.59;;;22.11;nan
55456;BME280;63021;52.836;6.376;2023-09-07T08:27:38;102158.78;;;22.18;nan
55456;BME280;63021;52.836;6.376;2023-09-07T08:30:04;102165.13;;;22.25;nan
55456;BME280;63021;52.836;6.376;2023-09-07T08:32:31;102165.19;;;22.32;nan
55456;BME280;63021;52.836;6.376;2023-09-07T08:34:56;102164.44;;;22.38;nan
55456;BME280;63021;52.836;6.376;2023-09-07T08:37:25;102166.41;;;22.44;nan
55456;BME280;63021;52.836;6.376;2023-09-07T08:39:51;102169.16;;;22.51;nan
55456;BME280;63021;52.836;6.376;2023-09-07T08:42:16;102164.84;;;22.57;nan
55456;BME280;63021;52.836;6.376;2023-09-07T08:44:44;102165.94;;;22.62;nan
55456;BME280;63021;52.836;6.376;2023-09-07T08:47:11;102162.66;;;22.67;nan
55456;BME280;63021;52.836;6.376;2023-09-07T08:49:42;102166.25;;;22.74;nan
55456;BME280;63021;52.836;6.376;2023-09-07T08:52:12;102153.75;;;22.80;nan
55456;BME280;63021;52.836;6.376;2023-09-07T08:54:43;102160.09;;;22.87;nan
55456;BME280;63021;52.836;6.376;2023-09-07T08:57:09;102154.91;;;22.92;nan
55456;BME280;63021;52.836;6.376;2023-09-07T08:59:35;102154.56;;;23.02;nan
55456;BME280;63021;52.836;6.376;2023-09-07T09:02:01;102153.56;;;23.10;nan
55456;BME280;63021;52.836;6.376;2023-09-07T09:04:29;102145.50;;;23.16;nan
55456;BME280;63021;52.836;6.376;2023-09-07T09:06:55;102152.00;;;23.22;nan
55456;BME280;63021;52.836;6.376;2023-09-07T09:09:23;102155.41;;;23.31;nan
55456;BME280;63021;52.836;6.376;2023-09-07T09:11:52;102152.72;;;23.38;nan
55456;BME280;63021;52.836;6.376;2023-09-07T09:14:17;102150.88;;;23.45;nan
55456;BME280;63021;52.836;6.376;2023-09-07T09:16:53;102155.50;;;23.51;nan
55456;BME280;63021;52.836;6.376;2023-09-07T09:19:18;102141.09;;;23.57;nan
55456;BME280;63021;52.836;6.376;2023-09-07T09:21:44;102136.75;;;23.63;nan
55456;BME280;63021;52.836;6.376;2023-09-07T09:24:10;102144.28;;;23.67;nan
55456;BME280;63021;52.836;6.376;2023-09-07T09:26:38;102141.81;;;23.73;nan
55456;BME280;63021;52.836;6.376;2023-09-07T09:29:03;102144.75;;;23.78;nan
55456;BME280;63021;52.836;6.376;2023-09-07T09:31:29;102146.00;;;23.82;nan
55456;BME280;63021;52.836;6.376;2023-09-07T09:33:55;102136.41;;;23.86;nan
55456;BME280;63021;52.836;6.376;2023-09-07T09:36:20;102137.50;;;23.92;nan
55456;BME280;63021;52.836;6.376;2023-09-07T09:38:49;102135.63;;;23.99;nan
55456;BME280;63021;52.836;6.376;2023-09-07T09:41:15;102138.38;;;24.06;nan
55456;BME280;63021;52.836;6.376;2023-09-07T09:43:41;102127.53;;;24.12;nan
55456;BME280;63021;52.836;6.376;2023-09-07T09:46:07;102133.81;;;24.19;nan
55456;BME280;63021;52.836;6.376;2023-09-07T09:48:33;102125.84;;;24.25;nan
55456;BME280;63021;52.836;6.376;2023-09-07T09:50:58;102127.56;;;24.32;nan
55456;BME280;63021;52.836;6.376;2023-09-07T09:53:24;102125.88;;;24.38;nan
55456;BME280;63021;52.836;6.376;2023-09-07T09:55:52;102123.16;;;24.45;nan
55456;BME280;63021;52.836;6.376;2023-09-07T09:58:18;102120.44;;;24.51;nan
55456;BME280;63021;52.836;6.376;2023-09-07T10:00:43;102114.16;;;24.58;nan
55456;BME280;63021;52.836;6.376;2023-09-07T10:03:20;102116.91;;;24.64;nan
55456;BME280;63021;52.836;6.376;2023-09-07T10:05:48;102107.88;;;24.70;nan
55456;BME280;63021;52.836;6.376;2023-09-07T10:08:15;102107.03;;;24.77;nan
55456;BME280;63021;52.836;6.376;2023-09-07T10:10:41;102108.09;;;24.82;nan
55456;BME280;63021;52.836;6.376;2023-09-07T10:13:06;102104.53;;;24.88;nan
55456;BME280;63021;52.836;6.376;2023-09-07T10:15:32;102096.75;;;24.92;nan
55456;BME280;63021;52.836;6.376;2023-09-07T10:18:13;102105.75;;;24.99;nan
55456;BME280;63021;52.836;6.376;2023-09-07T10:20:53;102105.75;;;25.06;nan
55456;BME280;63021;52.836;6.376;2023-09-07T10:23:19;102102.97;;;25.13;nan
55456;BME280;63021;52.836;6.376;2023-09-07T10:25:51;102105.91;;;25.18;nan
55456;BME280;63021;52.836;6.376;2023-09-07T10:28:17;102104.00;;;25.25;nan
55456;BME280;63021;52.836;6.376;2023-09-07T10:30:43;102102.13;;;25.32;nan
55456;BME280;63021;52.836;6.376;2023-09-07T10:33:18;102096.88;;;25.37;nan
55456;BME280;63021;52.836;6.376;2023-09-07T10:35:44;102096.84;;;25.44;nan
55456;BME280;63021;52.836;6.376;2023-09-07T10:38:15;102099.75;;;25.49;nan
55456;BME280;63021;52.836;6.376;2023-09-07T10:40:41;102097.00;;;25.56;nan
55456;BME280;63021;52.836;6.376;2023-09-07T10:43:12;102101.38;;;25.64;nan
55456;BME280;63021;52.836;6.376;2023-09-07T10:45:37;102095.91;;;25.70;nan
55456;BME280;63021;52.836;6.376;2023-09-07T10:48:02;102089.56;;;25.76;nan
55456;BME280;63021;52.836;6.376;2023-09-07T10:50:41;102088.44;;;25.84;nan
55456;BME280;63021;52.836;6.376;2023-09-07T10:53:07;102085.69;;;25.91;nan
55456;BME280;63021;52.836;6.376;2023-09-07T10:55:40;102081.84;;;25.99;nan
55456;BME280;63021;52.836;6.376;2023-09-07T10:58:08;102086.25;;;26.06;nan
55456;BME280;63021;52.836;6.376;2023-09-07T11:00:41;102087.88;;;26.14;nan
55456;BME280;63021;52.836;6.376;2023-09-07T11:03:12;102086.75;;;26.22;nan
55456;BME280;63021;52.836;6.376;2023-09-07T11:05:39;102084.63;;;26.31;nan
55456;BME280;63021;52.836;6.376;2023-09-07T11:08:05;102073.63;;;26.37;nan
55456;BME280;63021;52.836;6.376;2023-09-07T11:10:34;102083.22;;;26.47;nan
55456;BME280;63021;52.836;6.376;2023-09-07T11:13:05;102080.19;;;26.55;nan
55456;BME280;63021;52.836;6.376;2023-09-07T11:15:32;102065.19;;;26.64;nan
55456;BME280;63021;52.836;6.376;2023-09-07T11:18:03;102072.91;;;26.74;nan
55456;BME280;63021;52.836;6.376;2023-09-07T11:20:29;102062.53;;;26.83;nan
55456;BME280;63021;52.836;6.376;2023-09-07T11:22:54;102061.13;;;26.92;nan
55456;BME280;63021;52.836;6.376;2023-09-07T11:25:20;102058.94;;;27.01;nan
55456;BME280;63021;52.836;6.376;2023-09-07T11:27:45;102068.53;;;27.10;nan
55456;BME280;63021;52.836;6.376;2023-09-07T11:30:10;102057.50;;;27.17;nan
55456;BME280;63021;52.836;6.376;2023-09-07T11:32:36;102047.94;;;27.26;nan
55456;BME280;63021;52.836;6.376;2023-09-07T11:35:01;102050.16;;;27.36;nan
55456;BME280;63021;52.836;6.376;2023-09-07T11:37:27;102055.91;;;27.46;nan
55456;BME280;63021;52.836;6.376;2023-09-07T11:39:53;102049.66;;;27.57;nan
55456;BME280;63021;52.836;6.376;2023-09-07T11:42:18;102039.81;;;27.68;nan
55456;BME280;63021;52.836;6.376;2023-09-07T11:44:43;102042.56;;;27.80;nan
55456;BME280;63021;52.836;6.376;2023-09-07T11:47:09;102031.06;;;27.90;nan
55456;BME280;63021;52.836;6.376;2023-09-07T11:49:37;102033.00;;;28.01;nan
55456;BME280;63021;52.836;6.376;2023-09-07T11:52:02;102028.41;;;28.13;nan
55456;BME280;63021;52.836;6.376;2023-09-07T11:54:28;102026.25;;;28.27;nan
55456;BME280;63021;52.836;6.376;2023-09-07T11:56:53;102021.88;;;28.38;nan
55456;BME280;63021;52.836;6.376;2023-09-07T11:59:18;102024.84;;;28.48;nan
55456;BME280;63021;52.836;6.376;2023-09-07T12:01:43;102026.72;;;28.60;nan
55456;BME280;63021;52.836;6.376;2023-09-07T12:04:12;102027.84;;;28.71;nan
55456;BME280;63021;52.836;6.376;2023-09-07T12:06:37;102021.72;;;28.80;nan
55456;BME280;63021;52.836;6.376;2023-09-07T12:09:04;102024.09;;;28.89;nan
55456;BME280;63021;52.836;6.376;2023-09-07T12:11:30;102021.56;;;28.99;nan
55456;BME280;63021;52.836;6.376;2023-09-07T12:13:56;102022.25;;;29.06;nan
55456;BME280;63021;52.836;6.376;2023-09-07T12:16:21;102017.47;;;29.13;nan
55456;BME280;63021;52.836;6.376;2023-09-07T12:18:46;102011.59;;;29.21;nan
55456;BME280;63021;52.836;6.376;2023-09-07T12:21:11;102009.56;;;29.29;nan
55456;BME280;63021;52.836;6.376;2023-09-07T12:23:37;102007.28;;;29.37;nan
55456;BME280;63021;52.836;6.376;2023-09-07T12:26:02;102007.13;;;29.44;nan
55456;BME280;63021;52.836;6.376;2023-09-07T12:28:29;102008.63;;;29.52;nan
55456;BME280;63021;52.836;6.376;2023-09-07T12:30:54;102006.31;;;29.61;nan
55456;BME280;63021;52.836;6.376;2023-09-07T12:33:20;102001.50;;;29.68;nan
55456;BME280;63021;52.836;6.376;2023-09-07T12:35:45;102006.03;;;29.74;nan
55456;BME280;63021;52.836;6.376;2023-09-07T12:38:10;102002.28;;;29.80;nan
55456;BME280;63021;52.836;6.376;2023-09-07T12:40:40;101995.56;;;29.88;nan
55456;BME280;63021;52.836;6.376;2023-09-07T12:43:05;101991.91;;;29.99;nan
55456;BME280;63021;52.836;6.376;2023-09-07T12:45:30;102000.56;;;30.08;nan
55456;BME280;63021;52.836;6.376;2023-09-07T12:47:56;101991.34;;;30.14;nan
55456;BME280;63021;52.836;6.376;2023-09-07T12:50:21;101999.38;;;30.21;nan
55456;BME280;63021;52.836;6.376;2023-09-07T12:52:48;102003.28;;;30.25;nan
55456;BME280;63021;52.836;6.376;2023-09-07T12:55:13;101998.13;;;30.29;nan
55456;BME280;63021;52.836;6.376;2023-09-07T12:57:38;102000.13;;;30.33;nan
55456;BME280;63021;52.836;6.376;2023-09-07T13:00:05;101986.94;;;30.35;nan
55456;BME280;63021;52.836;6.376;2023-09-07T13:02:31;101993.13;;;30.43;nan
55456;BME280;63021;52.836;6.376;2023-09-07T13:04:57;101985.78;;;30.48;nan